Time;durP1;ratioP1;P1;durP2;ratioP2;P2;SDS_P1;SDS_P2;PMS_P1;PMS_P2;Temp;Humidity;BMP_temperature;BMP_pressure;BME280_temperature;BME280_humidity;BME280_pressure;Samples;Min_cycle;Max_cycle;Signal;HPM_P1;HPM_P2
2021/10/03 00:00:02;;;;;;;0.40;0.20;;;16.60;99.90;;;;;;4971730;28;20397;-72
2021/10/03 00:02:30;;;;;;;0.60;0.50;;;16.50;99.90;;;;;;4972147;28;20745;-72
2021/10/03 00:04:57;;;;;;;0.40;0.20;;;16.50;99.90;;;;;;4971769;28;20393;-72
2021/10/03 00:07:24;;;;;;;0.60;0.60;;;16.40;99.90;;;;;;4972417;28;20495;-72
2021/10/03 00:09:51;;;;;;;0.50;0.50;;;16.50;99.90;;;;;;4972315;28;20767;-72
2021/10/03 00:12:18;;;;;;;0.40;0.20;;;16.40;99.90;;;;;;4971401;28;20926;-72
2021/10/03 00:14:44;;;;;;;0.40;0.30;;;16.30;99.90;;;;;;4972195;28;20857;-72
2021/10/03 00:17:10;;;;;;;0.40;0.30;;;16.40;99.90;;;;;;4971496;28;20859;-72
2021/10/03 00:19:37;;;;;;;0.40;0.20;;;16.30;99.90;;;;;;4972199;28;20419;-73
2021/10/03 00:22:03;;;;;;;0.40;0.30;;;16.30;99.90;;;;;;4971664;28;20627;-72
2021/10/03 00:24:30;;;;;;;0.40;0.20;;;16.20;99.90;;;;;;4971232;28;20759;-72
2021/10/03 00:26:57;;;;;;;0.40;0.20;;;16.30;99.90;;;;;;4971592;28;20467;-73
2021/10/03 00:29:24;;;;;;;0.40;0.30;;;16.20;99.90;;;;;;4972037;28;20400;-72
2021/10/03 00:31:50;;;;;;;0.50;0.50;;;16.20;99.90;;;;;;4972197;28;20809;-72
2021/10/03 00:34:16;;;;;;;0.40;0.30;;;16.40;99.90;;;;;;4971658;28;20387;-72
2021/10/03 00:36:41;;;;;;;0.40;0.20;;;16.40;99.90;;;;;;4971815;28;20384;-72
2021/10/03 00:39:07;;;;;;;0.40;0.20;;;16.40;99.90;;;;;;4971393;28;20400;-72
2021/10/03 00:41:33;;;;;;;0.40;0.20;;;16.30;99.90;;;;;;4972229;28;20411;-72
2021/10/03 00:43:59;;;;;;;0.40;0.30;;;16.20;99.90;;;;;;4971014;28;20420;-73
2021/10/03 00:46:25;;;;;;;0.40;0.30;;;16.00;99.90;;;;;;4989279;28;20851;-72
2021/10/03 00:48:50;;;;;;;0.40;0.20;;;16.00;99.90;;;;;;4992196;28;20430;-72
2021/10/03 00:51:17;;;;;;;0.40;0.20;;;15.90;99.90;;;;;;4993330;28;20425;-72
2021/10/03 00:53:42;;;;;;;0.40;0.20;;;16.00;99.90;;;;;;4995309;28;20482;-72
2021/10/03 00:56:12;;;;;;;0.40;0.30;;;16.00;99.90;;;;;;4994508;28;20938;-72
2021/10/03 00:58:38;;;;;;;0.40;0.25;;;15.90;99.90;;;;;;4995024;28;20485;-72
2021/10/03 01:01:04;;;;;;;0.40;0.30;;;15.80;99.90;;;;;;4994208;28;20898;-72
2021/10/03 01:03:30;;;;;;;0.40;0.20;;;15.90;99.90;;;;;;4995201;28;20471;-72
2021/10/03 01:05:56;;;;;;;0.40;0.30;;;15.90;99.90;;;;;;4994937;28;20391;-72
2021/10/03 01:08:21;;;;;;;0.40;0.30;;;15.90;99.90;;;;;;4994464;28;20410;-72
2021/10/03 01:10:47;;;;;;;0.40;0.20;;;16.00;99.90;;;;;;4994930;28;20394;-72
2021/10/03 01:13:13;;;;;;;0.40;0.20;;;16.00;99.90;;;;;;4994111;28;20389;-72
2021/10/03 01:15:41;;;;;;;0.40;0.30;;;16.00;99.90;;;;;;4994818;28;20407;-72
2021/10/03 01:18:08;;;;;;;0.40;0.20;;;16.00;99.90;;;;;;4994163;28;20386;-72
2021/10/03 01:20:34;;;;;;;0.40;0.20;;;16.00;99.90;;;;;;4994507;28;20418;-72
2021/10/03 01:23:03;;;;;;;0.40;0.30;;;16.10;99.90;;;;;;4994169;28;20386;-73
2021/10/03 01:25:50;;;;;;;0.40;0.30;;;16.10;99.90;;;;;;4994539;28;20395;-72
2021/10/03 01:28:18;;;;;;;0.40;0.20;;;16.10;99.90;;;;;;4994245;28;20409;-72
2021/10/03 01:30:47;;;;;;;0.40;0.30;;;16.10;99.90;;;;;;4994688;28;20378;-72
2021/10/03 01:33:14;;;;;;;0.40;0.30;;;16.10;99.90;;;;;;4994080;28;20387;-72
2021/10/03 01:35:39;;;;;;;0.40;0.30;;;16.20;99.90;;;;;;4994406;28;20378;-72
2021/10/03 01:38:07;;;;;;;0.40;0.30;;;16.10;99.90;;;;;;4994170;28;20493;-72
2021/10/03 01:40:33;;;;;;;0.40;0.30;;;16.00;99.90;;;;;;4994284;28;20441;-72
2021/10/03 01:42:59;;;;;;;0.40;0.20;;;15.90;99.90;;;;;;4994392;28;20398;-72
2021/10/03 01:45:26;;;;;;;0.40;0.20;;;15.90;99.90;;;;;;4984165;28;20439;-72
2021/10/03 01:48:11;;;;;;;0.40;0.30;;;15.90;99.90;;;;;;4957408;28;20869;-72
2021/10/03 01:50:53;;;;;;;0.40;0.30;;;15.90;99.90;;;;;;4974947;28;20412;-72
2021/10/03 01:53:22;;;;;;;0.40;0.30;;;16.00;99.90;;;;;;4974452;28;20396;-72
2021/10/03 01:55:49;;;;;;;0.40;0.20;;;15.90;99.90;;;;;;4975062;28;20392;-72
2021/10/03 01:58:17;;;;;;;0.40;0.30;;;15.90;99.90;;;;;;4974135;28;20400;-72
2021/10/03 02:00:46;;;;;;;0.40;0.30;;;15.90;99.90;;;;;;4974362;28;20440;-72
2021/10/03 02:03:12;;;;;;;0.40;0.30;;;15.90;99.90;;;;;;4973984;28;20479;-72
2021/10/03 02:05:40;;;;;;;0.80;0.80;;;15.90;99.90;;;;;;4974481;28;20825;-72
2021/10/03 02:08:07;;;;;;;0.50;0.50;;;15.80;99.90;;;;;;4956613;28;20873;-73
2021/10/03 02:10:37;;;;;;;0.40;0.20;;;15.80;99.90;;;;;;4974242;28;20392;-72
2021/10/03 02:13:04;;;;;;;0.40;0.30;;;15.90;99.90;;;;;;4973984;28;20380;-72
2021/10/03 02:15:30;;;;;;;0.40;0.30;;;15.90;99.90;;;;;;4974307;28;20443;-72
2021/10/03 02:17:56;;;;;;;0.40;0.30;;;15.80;99.90;;;;;;4974546;28;20715;-72
2021/10/03 02:20:22;;;;;;;1.10;1.00;;;15.80;99.90;;;;;;4973490;28;20395;-72
2021/10/03 02:22:49;;;;;;;0.40;0.20;;;15.90;99.90;;;;;;4974274;28;20392;-72
2021/10/03 02:25:15;;;;;;;0.40;0.30;;;15.90;99.90;;;;;;4973315;28;20400;-72
2021/10/03 02:27:40;;;;;;;0.40;0.20;;;15.80;99.90;;;;;;4974138;28;20416;-72
2021/10/03 02:30:08;;;;;;;0.40;0.30;;;15.70;99.90;;;;;;4973566;28;20377;-72
2021/10/03 02:32:34;;;;;;;0.40;0.20;;;15.60;99.90;;;;;;4974109;28;20384;-72
2021/10/03 02:35:00;;;;;;;0.40;0.30;;;15.60;99.90;;;;;;4973897;28;20976;-72
2021/10/03 02:37:26;;;;;;;0.40;0.30;;;15.70;99.90;;;;;;4973424;28;20388;-72
2021/10/03 02:39:53;;;;;;;0.40;0.30;;;15.60;99.90;;;;;;4973920;28;20853;-72
2021/10/03 02:42:19;;;;;;;0.40;0.25;;;15.50;99.90;;;;;;4973181;28;20427;-72
2021/10/03 02:44:45;;;;;;;0.40;0.30;;;15.40;99.90;;;;;;4977943;28;20741;-72
2021/10/03 02:47:12;;;;;;;0.40;0.20;;;15.40;99.90;;;;;;4992501;28;20394;-72
2021/10/03 02:49:43;;;;;;;0.40;0.25;;;15.40;99.90;;;;;;4993101;28;20402;-72
2021/10/03 02:52:10;;;;;;;0.40;0.20;;;15.30;99.90;;;;;;4992381;28;20383;-72
2021/10/03 02:54:37;;;;;;;0.40;0.30;;;15.40;99.90;;;;;;4975131;28;20461;-72
2021/10/03 02:57:06;;;;;;;1.80;0.70;;;15.40;99.90;;;;;;4992995;28;20449;-72
2021/10/03 02:59:32;;;;;;;0.40;0.30;;;15.40;99.90;;;;;;4992573;28;20403;-72
2021/10/03 03:01:57;;;;;;;0.40;0.20;;;15.40;99.90;;;;;;4992985;28;20418;-72
2021/10/03 03:04:23;;;;;;;0.40;0.30;;;15.30;99.90;;;;;;4992428;28;20383;-72
2021/10/03 03:06:49;;;;;;;0.40;0.30;;;15.50;99.90;;;;;;4992613;28;20387;-72
2021/10/03 03:09:15;;;;;;;0.50;0.50;;;15.30;99.90;;;;;;4992017;28;20390;-72
2021/10/03 03:11:40;;;;;;;0.40;0.20;;;15.30;99.90;;;;;;4992304;28;20382;-72
2021/10/03 03:14:06;;;;;;;0.40;0.30;;;15.40;99.90;;;;;;4992391;28;20383;-72
2021/10/03 03:16:32;;;;;;;0.40;0.20;;;15.30;99.90;;;;;;4992343;28;20399;-72
2021/10/03 03:18:57;;;;;;;0.40;0.30;;;15.30;99.90;;;;;;4992909;28;20387;-72
2021/10/03 03:21:24;;;;;;;0.50;0.50;;;15.30;99.90;;;;;;4991885;28;20406;-72
2021/10/03 03:23:49;;;;;;;0.40;0.28;;;15.20;99.90;;;;;;4992213;28;20807;-72
2021/10/03 03:26:15;;;;;;;0.40;0.30;;;15.20;99.90;;;;;;4991726;28;20398;-72
2021/10/03 03:28:41;;;;;;;0.70;0.50;;;15.20;99.90;;;;;;4992649;28;20401;-72
2021/10/03 03:31:07;;;;;;;0.40;0.20;;;15.30;99.90;;;;;;4992320;28;20473;-72
2021/10/03 03:33:32;;;;;;;0.40;0.20;;;15.30;99.90;;;;;;4992461;28;20868;-72
2021/10/03 03:35:58;;;;;;;0.40;0.30;;;15.10;99.90;;;;;;4992430;28;20382;-72
2021/10/03 03:38:24;;;;;;;0.40;0.20;;;15.20;99.90;;;;;;4991412;28;20855;-72
2021/10/03 03:40:50;;;;;;;0.40;0.30;;;15.10;99.90;;;;;;4992109;28;20422;-73
2021/10/03 03:43:15;;;;;;;0.40;0.20;;;15.20;99.90;;;;;;4991334;28;20391;-73
2021/10/03 03:45:41;;;;;;;0.40;0.30;;;15.10;99.90;;;;;;4991881;28;20398;-72
2021/10/03 03:48:07;;;;;;;0.40;0.20;;;15.10;99.90;;;;;;4991840;28;20378;-72
2021/10/03 03:50:34;;;;;;;0.40;0.30;;;15.20;99.90;;;;;;4991965;28;20414;-73
2021/10/03 03:53:00;;;;;;;0.40;0.20;;;15.20;99.90;;;;;;4992020;28;20386;-73
2021/10/03 03:55:26;;;;;;;0.40;0.30;;;15.10;99.90;;;;;;4991497;28;20500;-74
2021/10/03 03:57:53;;;;;;;0.40;0.20;;;15.10;99.90;;;;;;4991904;28;20508;-73
2021/10/03 04:00:19;;;;;;;0.40;0.20;;;15.20;99.90;;;;;;4990994;28;20858;-73
2021/10/03 04:02:45;;;;;;;0.40;0.30;;;15.10;99.90;;;;;;4992053;28;20399;-74
2021/10/03 04:05:11;;;;;;;0.40;0.27;;;15.10;99.90;;;;;;4991635;28;20397;-74
2021/10/03 04:07:37;;;;;;;0.40;0.20;;;15.20;99.90;;;;;;4992601;28;20387;-73
2021/10/03 04:10:05;;;;;;;0.40;0.20;;;14.90;99.90;;;;;;4992410;28;20382;-73
2021/10/03 04:12:30;;;;;;;0.40;0.30;;;14.90;99.90;;;;;;4991689;28;20477;-73
2021/10/03 04:14:56;;;;;;;0.40;0.20;;;15.10;99.90;;;;;;4992286;28;20474;-73
2021/10/03 04:17:22;;;;;;;0.40;0.20;;;15.10;99.90;;;;;;4991571;28;20378;-73
2021/10/03 04:19:48;;;;;;;0.40;0.20;;;15.10;99.90;;;;;;4992139;28;20437;-73
2021/10/03 04:22:14;;;;;;;0.40;0.30;;;15.10;99.90;;;;;;4991462;28;20406;-74
2021/10/03 04:24:39;;;;;;;0.40;0.40;;;15.20;99.90;;;;;;4973761;28;20413;-73
2021/10/03 04:27:05;;;;;;;0.40;0.30;;;15.20;99.90;;;;;;4991599;28;20414;-73
2021/10/03 04:29:31;;;;;;;0.40;0.30;;;15.30;99.90;;;;;;4991572;28;20747;-73
2021/10/03 04:31:57;;;;;;;0.60;0.60;;;15.20;99.90;;;;;;4992002;28;20446;-73
2021/10/03 04:34:22;;;;;;;0.40;0.40;;;15.30;99.90;;;;;;4991439;28;20378;-74
2021/10/03 04:36:48;;;;;;;0.40;0.30;;;15.20;99.90;;;;;;4991996;28;20446;-73
2021/10/03 04:39:13;;;;;;;0.40;0.30;;;15.50;99.90;;;;;;4991446;28;20440;-74
2021/10/03 04:41:39;;;;;;;0.40;0.20;;;15.30;99.90;;;;;;4991759;28;20407;-73
2021/10/03 04:44:05;;;;;;;0.40;0.20;;;15.20;99.90;;;;;;4992023;28;20461;-73
2021/10/03 04:46:30;;;;;;;0.40;0.20;;;15.30;99.90;;;;;;4973088;28;20450;-73
2021/10/03 04:48:56;;;;;;;0.40;0.20;;;15.20;99.90;;;;;;4972182;28;20388;-73
2021/10/03 04:51:22;;;;;;;0.43;0.40;;;15.20;99.90;;;;;;4972010;28;20467;-73
2021/10/03 04:53:47;;;;;;;0.40;0.20;;;15.30;99.90;;;;;;4972334;28;20482;-73
2021/10/03 04:56:13;;;;;;;0.40;0.20;;;15.30;99.90;;;;;;4971999;28;20543;-74
2021/10/03 04:58:39;;;;;;;0.40;0.30;;;15.30;99.90;;;;;;4971990;28;20424;-73
2021/10/03 05:01:04;;;;;;;0.40;0.30;;;15.30;99.90;;;;;;4972321;28;20426;-73
2021/10/03 05:03:30;;;;;;;0.40;0.30;;;15.30;99.90;;;;;;4971757;28;20394;-73
2021/10/03 05:05:56;;;;;;;0.40;0.25;;;15.40;99.90;;;;;;4972372;28;20392;-73
2021/10/03 05:08:22;;;;;;;0.40;0.30;;;15.40;99.90;;;;;;4972072;28;20468;-73
2021/10/03 05:10:48;;;;;;;0.40;0.30;;;15.40;99.90;;;;;;4972405;28;20389;-73
2021/10/03 05:13:14;;;;;;;0.40;0.20;;;15.40;99.90;;;;;;4972101;28;20380;-74
2021/10/03 05:15:42;;;;;;;0.40;0.30;;;15.40;99.90;;;;;;4972476;28;20392;-73
2021/10/03 05:18:08;;;;;;;0.40;0.20;;;15.50;99.90;;;;;;4972185;28;20446;-73
2021/10/03 05:20:34;;;;;;;0.40;0.30;;;15.40;99.90;;;;;;4971362;28;20919;-73
2021/10/03 05:22:59;;;;;;;0.40;0.30;;;15.40;99.90;;;;;;4971923;28;20479;-73
2021/10/03 05:25:25;;;;;;;0.40;0.30;;;15.40;99.90;;;;;;4971515;28;20396;-74
2021/10/03 05:27:50;;;;;;;0.40;0.30;;;15.30;99.90;;;;;;4972322;28;20420;-73
2021/10/03 05:30:16;;;;;;;0.40;0.20;;;15.30;99.90;;;;;;4971627;28;20845;-74
2021/10/03 05:32:42;;;;;;;0.40;0.20;;;15.30;99.90;;;;;;4972204;28;20428;-73
2021/10/03 05:35:08;;;;;;;0.60;0.50;;;15.50;99.90;;;;;;4972883;28;20455;-73
2021/10/03 05:37:34;;;;;;;0.40;0.30;;;15.50;99.90;;;;;;4974877;28;20423;-73
2021/10/03 05:40:00;;;;;;;0.40;0.20;;;15.50;99.90;;;;;;4975587;28;20376;-73
2021/10/03 05:42:25;;;;;;;0.40;0.20;;;15.40;99.90;;;;;;4974835;28;20503;-73
2021/10/03 05:44:51;;;;;;;0.40;0.30;;;15.30;99.90;;;;;;4980522;28;20398;-73
2021/10/03 05:47:17;;;;;;;0.40;0.30;;;15.40;99.90;;;;;;4994630;28;20395;-74
2021/10/03 05:49:42;;;;;;;0.40;0.20;;;15.40;99.90;;;;;;4994788;28;20393;-73
2021/10/03 05:52:08;;;;;;;0.40;0.30;;;15.60;99.90;;;;;;4994927;28;20389;-73
2021/10/03 05:54:34;;;;;;;0.40;0.20;;;15.60;99.90;;;;;;4993938;28;20505;-73
2021/10/03 05:56:59;;;;;;;0.40;0.20;;;15.80;99.90;;;;;;4994799;28;20402;-73
2021/10/03 05:59:25;;;;;;;0.40;0.20;;;15.90;99.90;;;;;;4993693;28;20379;-73
2021/10/03 06:01:50;;;;;;;0.40;0.23;;;16.00;99.90;;;;;;4994698;28;20802;-73
2021/10/03 06:04:16;;;;;;;0.50;0.47;;;16.10;99.90;;;;;;4994242;28;20390;-74
2021/10/03 06:06:42;;;;;;;0.40;0.20;;;16.10;99.90;;;;;;4994332;28;20437;-73
2021/10/03 06:09:07;;;;;;;0.40;0.20;;;16.10;99.90;;;;;;4994538;28;20470;-73
2021/10/03 06:11:33;;;;;;;0.40;0.30;;;16.10;99.90;;;;;;4993751;28;20397;-73
2021/10/03 06:13:59;;;;;;;0.40;0.30;;;15.90;99.90;;;;;;4994200;28;20871;-73
2021/10/03 06:16:25;;;;;;;0.40;0.20;;;16.00;99.90;;;;;;4993774;28;20395;-74
2021/10/03 06:18:51;;;;;;;0.40;0.30;;;16.00;99.90;;;;;;4994262;28;20423;-74
2021/10/03 06:21:17;;;;;;;0.40;0.30;;;16.00;99.90;;;;;;4994231;28;20473;-73
2021/10/03 06:23:44;;;;;;;0.40;0.30;;;16.00;99.90;;;;;;4994190;28;20437;-73
2021/10/03 06:26:13;;;;;;;0.40;0.30;;;15.90;99.90;;;;;;4994119;28;20440;-73
2021/10/03 06:28:39;;;;;;;0.40;0.20;;;15.90;99.90;;;;;;4993562;28;20390;-73
2021/10/03 06:31:06;;;;;;;0.50;0.50;;;15.80;99.90;;;;;;4993832;28;20397;-73
2021/10/03 06:33:32;;;;;;;0.40;0.30;;;15.80;99.90;;;;;;4993348;28;20756;-73
2021/10/03 06:35:58;;;;;;;0.40;0.25;;;15.80;99.90;;;;;;4993774;28;20386;-74
2021/10/03 06:38:24;;;;;;;0.40;0.20;;;15.90;99.90;;;;;;4993285;28;20562;-73
2021/10/03 06:40:50;;;;;;;0.40;0.30;;;15.90;99.90;;;;;;4993838;28;20472;-73
2021/10/03 06:43:15;;;;;;;0.40;0.30;;;16.00;99.90;;;;;;4993562;28;20750;-74
2021/10/03 06:45:41;;;;;;;0.80;0.70;;;16.10;99.90;;;;;;4981627;28;20388;-73
2021/10/03 06:48:10;;;;;;;0.40;0.30;;;16.00;99.90;;;;;;4973426;28;20471;-73
2021/10/03 06:50:36;;;;;;;0.40;0.30;;;15.90;99.90;;;;;;4956488;28;20878;-73
2021/10/03 06:53:02;;;;;;;0.40;0.30;;;16.00;99.90;;;;;;4974052;28;20389;-73
2021/10/03 06:55:28;;;;;;;0.40;0.30;;;16.20;99.90;;;;;;4973194;28;20399;-73
2021/10/03 06:57:53;;;;;;;0.40;0.30;;;16.30;99.90;;;;;;4974207;28;20406;-73
2021/10/03 07:00:19;;;;;;;0.40;0.20;;;16.30;99.90;;;;;;4973919;28;20387;-73
2021/10/03 07:02:45;;;;;;;0.40;0.30;;;16.50;99.90;;;;;;4974116;28;20977;-73
2021/10/03 07:05:11;;;;;;;0.40;0.28;;;16.40;99.90;;;;;;4974027;28;20388;-73
2021/10/03 07:07:37;;;;;;;0.40;0.30;;;16.60;99.90;;;;;;4973388;28;20388;-74
2021/10/03 07:10:03;;;;;;;0.40;0.30;;;16.60;99.90;;;;;;4973895;28;20916;-73
2021/10/03 07:12:29;;;;;;;0.40;0.20;;;16.50;99.90;;;;;;4973310;28;20388;-74
2021/10/03 07:14:55;;;;;;;0.40;0.20;;;16.50;99.90;;;;;;4973779;28;20439;-74
2021/10/03 07:17:21;;;;;;;0.40;0.20;;;16.50;99.90;;;;;;4973694;28;20737;-74
2021/10/03 07:19:46;;;;;;;0.40;0.30;;;16.50;99.90;;;;;;4973917;28;20392;-73
2021/10/03 07:22:12;;;;;;;0.40;0.20;;;16.50;99.90;;;;;;4973664;28;20964;-73
2021/10/03 07:24:38;;;;;;;0.40;0.30;;;16.60;99.90;;;;;;4973157;28;20392;-74
2021/10/03 07:27:05;;;;;;;0.40;0.20;;;16.80;99.90;;;;;;4973692;28;20424;-73
2021/10/03 07:29:31;;;;;;;0.60;0.60;;;17.00;99.90;;;;;;4972960;28;20764;-73
2021/10/03 07:31:57;;;;;;;0.40;0.30;;;17.10;99.90;;;;;;4973339;28;20432;-73
2021/10/03 07:34:23;;;;;;;0.40;0.30;;;17.30;99.90;;;;;;4972805;28;20439;-74
2021/10/03 07:36:48;;;;;;;0.40;0.30;;;17.70;99.90;;;;;;4973483;28;20834;-73
2021/10/03 07:39:14;;;;;;;0.40;0.20;;;18.10;99.90;;;;;;4973387;28;20419;-73
2021/10/03 07:41:40;;;;;;;0.40;0.30;;;18.50;99.60;;;;;;4972763;28;20412;-73
2021/10/03 07:44:05;;;;;;;0.40;0.30;;;18.90;97.90;;;;;;4973036;28;20392;-73
2021/10/03 07:46:31;;;;;;;0.40;0.20;;;19.10;96.70;;;;;;4991203;28;20394;-73
2021/10/03 07:48:57;;;;;;;0.40;0.30;;;19.40;95.80;;;;;;4992559;28;20382;-73
2021/10/03 07:51:23;;;;;;;0.40;0.20;;;19.60;94.00;;;;;;4992000;28;20404;-74
2021/10/03 07:53:48;;;;;;;0.40;0.30;;;19.70;94.00;;;;;;4992225;28;20872;-71
2021/10/03 07:56:14;;;;;;;0.40;0.20;;;19.90;93.10;;;;;;4992745;28;20398;-71
2021/10/03 07:58:40;;;;;;;0.40;0.40;;;20.00;92.20;;;;;;4991824;28;20397;-73
2021/10/03 08:01:06;;;;;;;0.40;0.20;;;19.90;93.70;;;;;;4974802;28;20476;-73
2021/10/03 08:03:31;;;;;;;0.40;0.20;;;20.20;92.70;;;;;;4991862;28;20382;-71
2021/10/03 08:05:57;;;;;;;0.40;0.30;;;20.20;91.90;;;;;;4974986;28;20744;-73
2021/10/03 08:08:23;;;;;;;0.40;0.30;;;20.30;92.00;;;;;;4992143;28;20390;-73
2021/10/03 08:10:49;;;;;;;0.40;0.30;;;20.20;95.90;;;;;;4991727;28;20394;-73
2021/10/03 08:13:15;;;;;;;0.40;0.30;;;19.90;96.70;;;;;;4992047;28;20386;-73
2021/10/03 08:15:41;;;;;;;0.40;0.20;;;19.80;96.80;;;;;;4991266;28;20401;-73
2021/10/03 08:18:08;;;;;;;0.40;0.20;;;19.80;97.50;;;;;;4992293;28;20448;-73
2021/10/03 08:20:34;;;;;;;0.60;0.50;;;19.60;98.70;;;;;;4991437;28;20379;-74
2021/10/03 08:23:01;;;;;;;0.40;0.30;;;19.70;99.30;;;;;;4992218;28;20391;-73
2021/10/03 08:25:26;;;;;;;0.40;0.30;;;19.50;99.90;;;;;;4973687;28;20403;-72
2021/10/03 08:27:53;;;;;;;0.40;0.20;;;19.50;99.90;;;;;;4992217;28;20436;-72
2021/10/03 08:30:19;;;;;;;0.40;0.20;;;19.50;99.90;;;;;;4992084;28;20390;-72
2021/10/03 08:32:44;;;;;;;0.40;0.30;;;19.70;97.80;;;;;;4991197;28;20401;-72
2021/10/03 08:35:11;;;;;;;0.40;0.20;;;19.80;97.90;;;;;;4991982;28;20386;-72
2021/10/03 08:37:37;;;;;;;0.40;0.20;;;20.00;98.70;;;;;;4991158;28;20397;-73
2021/10/03 08:40:05;;;;;;;0.40;0.20;;;19.90;99.90;;;;;;4991831;28;20779;-72
2021/10/03 08:42:32;;;;;;;0.40;0.30;;;20.00;98.30;;;;;;4991000;28;20437;-74
2021/10/03 08:44:58;;;;;;;0.40;0.30;;;20.30;95.40;;;;;;4986017;28;20479;-72
2021/10/03 08:47:25;;;;;;;0.40;0.30;;;20.20;98.00;;;;;;4972519;28;20450;-71
2021/10/03 08:49:55;;;;;;;0.40;0.20;;;20.30;97.60;;;;;;4954490;28;20393;-71
2021/10/03 08:52:23;;;;;;;0.40;0.30;;;20.40;98.10;;;;;;4972590;28;20412;-71
2021/10/03 08:54:48;;;;;;;0.40;0.30;;;20.40;99.10;;;;;;4971788;28;20384;-71
2021/10/03 08:57:14;;;;;;;0.40;0.20;;;20.40;99.90;;;;;;4972450;28;20446;-71
2021/10/03 09:00:10;;;;;;;0.40;0.20;;;20.40;99.90;;;;;;4971746;28;20384;-71
2021/10/03 09:03:05;;;;;;;0.40;0.20;;;20.20;99.90;;;;;;4971415;28;20927;-72
2021/10/03 09:05:40;;;;;;;0.40;0.20;;;20.10;99.90;;;;;;4971412;28;20388;-72
2021/10/03 09:08:10;;;;;;;0.40;0.20;;;20.10;99.90;;;;;;4972375;28;20710;-72
2021/10/03 09:10:57;;;;;;;0.40;0.30;;;20.10;99.90;;;;;;4973144;28;20745;-72
2021/10/03 09:13:32;;;;;;;0.40;0.20;;;20.10;99.90;;;;;;4976005;28;20885;-75
2021/10/03 09:16:26;;;;;;;0.40;0.20;;;20.20;99.90;;;;;;4975948;28;20392;-74
2021/10/03 09:18:54;;;;;;;0.40;0.30;;;20.20;99.90;;;;;;4975780;28;20876;-73
2021/10/03 09:21:29;;;;;;;0.40;0.20;;;20.10;99.90;;;;;;4976096;28;20435;-73
2021/10/03 09:24:04;;;;;;;0.40;0.20;;;20.20;99.90;;;;;;4975936;28;20396;-73
2021/10/03 09:26:30;;;;;;;0.40;0.20;;;19.90;99.90;;;;;;4974598;28;21043;-74
2021/10/03 09:28:56;;;;;;;0.40;0.30;;;19.90;99.90;;;;;;4976288;28;20454;-72
2021/10/03 09:31:23;;;;;;;0.40;0.30;;;19.80;99.90;;;;;;4975755;28;20487;-74
2021/10/03 09:33:57;;;;;;;0.40;0.30;;;19.70;99.90;;;;;;4975216;28;21291;-72
2021/10/03 09:36:24;;;;;;;0.40;0.20;;;19.90;99.90;;;;;;4975584;28;20372;-72
2021/10/03 09:38:59;;;;;;;0.40;0.20;;;20.10;99.90;;;;;;4974987;28;20388;-72
2021/10/03 09:41:29;;;;;;;0.40;0.20;;;19.70;99.90;;;;;;4975511;28;20850;-72
2021/10/03 09:43:57;;;;;;;0.40;0.30;;;19.70;99.90;;;;;;4975379;28;20471;-72
2021/10/03 09:46:44;;;;;;;0.40;0.30;;;19.60;99.90;;;;;;4992556;28;20775;-72
2021/10/03 09:49:14;;;;;;;0.40;0.30;;;19.20;99.90;;;;;;4994894;28;20390;-72
2021/10/03 09:51:46;;;;;;;0.40;0.30;;;19.20;99.90;;;;;;4994089;28;20398;-72
2021/10/03 09:54:15;;;;;;;0.40;0.20;;;19.20;99.90;;;;;;4994709;28;20844;-72
2021/10/03 09:56:40;;;;;;;0.40;0.30;;;19.10;99.90;;;;;;4994144;28;20398;-72
2021/10/03 09:59:07;;;;;;;0.40;0.40;;;19.20;99.90;;;;;;4994645;28;20398;-72
2021/10/03 10:01:35;;;;;;;0.40;0.20;;;19.30;99.90;;;;;;4993865;28;20803;-73
2021/10/03 10:04:05;;;;;;;0.40;0.30;;;19.50;99.90;;;;;;4994726;28;20386;-72
2021/10/03 10:06:31;;;;;;;0.40;0.20;;;19.90;99.90;;;;;;4994030;28;20402;-73
2021/10/03 10:08:58;;;;;;;0.40;0.30;;;20.20;99.90;;;;;;4994712;28;20863;-72
2021/10/03 10:11:31;;;;;;;0.40;0.30;;;20.50;99.90;;;;;;4994303;28;20434;-72
2021/10/03 10:13:58;;;;;;;0.40;0.30;;;20.90;99.90;;;;;;4994436;28;20378;-72
2021/10/03 10:16:34;;;;;;;0.40;0.30;;;21.50;99.90;;;;;;4994318;28;20391;-72
2021/10/03 10:19:33;;;;;;;0.40;0.30;;;22.10;99.90;;;;;;4994519;28;20418;-72
2021/10/03 10:22:19;;;;;;;0.40;0.20;;;22.20;99.90;;;;;;4992652;28;20410;-73
2021/10/03 10:24:46;;;;;;;0.60;0.50;;;22.70;99.90;;;;;;4993494;28;20453;-72
2021/10/03 10:27:21;;;;;;;0.40;0.20;;;22.50;96.20;;;;;;4994122;28;20477;-72
2021/10/03 10:29:57;;;;;;;0.40;0.30;;;22.60;99.20;;;;;;4993443;28;20398;-73
2021/10/03 10:32:25;;;;;;;0.40;0.30;;;22.60;94.70;;;;;;4993829;28;20867;-73
2021/10/03 10:35:11;;;;;;;0.40;0.20;;;22.70;93.80;;;;;;4993462;28;20402;-72
2021/10/03 10:37:53;;;;;;;0.40;0.20;;;22.60;94.90;;;;;;4993234;28;20465;-72
2021/10/03 10:40:22;;;;;;;0.40;0.30;;;22.60;94.00;;;;;;4993837;28;20390;-73
2021/10/03 10:43:04;;;;;;;0.40;0.20;;;22.40;96.70;;;;;;4993182;28;20430;-72
2021/10/03 10:45:30;;;;;;;0.40;0.30;;;22.30;98.90;;;;;;4983817;28;20396;-72
2021/10/03 10:48:14;;;;;;;0.40;0.30;;;22.10;99.70;;;;;;4973683;28;20436;-72
2021/10/03 10:50:48;;;;;;;0.52;0.50;;;22.20;99.10;;;;;;4973534;28;20384;-72
2021/10/03 10:53:23;;;;;;;0.40;0.30;;;22.30;98.80;;;;;;4974219;28;20923;-72
2021/10/03 10:56:00;;;;;;;0.40;0.20;;;22.30;98.30;;;;;;4973201;28;20404;-72
2021/10/03 10:58:27;;;;;;;0.40;0.30;;;22.30;99.70;;;;;;4973990;28;20396;-72
2021/10/03 11:00:58;;;;;;;0.40;0.20;;;22.30;97.10;;;;;;4973707;28;20416;-72
2021/10/03 11:03:42;;;;;;;0.40;0.20;;;22.30;99.30;;;;;;4974203;28;20392;-73
2021/10/03 11:06:14;;;;;;;0.40;0.30;;;22.20;99.90;;;;;;4973987;28;20427;-73
2021/10/03 11:08:55;;;;;;;0.40;0.30;;;21.90;99.90;;;;;;4973479;28;20423;-74
2021/10/03 11:11:21;;;;;;;0.40;0.20;;;21.60;99.90;;;;;;4973567;28;20435;-73
2021/10/03 11:13:55;;;;;;;0.40;0.20;;;21.50;99.90;;;;;;4973264;28;20420;-74
2021/10/03 11:16:34;;;;;;;0.40;0.20;;;21.40;99.90;;;;;;4973884;28;20417;-73
2021/10/03 11:19:10;;;;;;;0.40;0.20;;;21.20;99.90;;;;;;4973843;28;20388;-73
2021/10/03 11:21:44;;;;;;;0.40;0.30;;;21.00;99.90;;;;;;4973105;28;20471;-74
2021/10/03 11:24:16;;;;;;;0.40;0.20;;;20.90;99.90;;;;;;4973905;28;20899;-74
2021/10/03 11:26:49;;;;;;;0.40;0.30;;;20.80;99.90;;;;;;4972893;28;20412;-74
2021/10/03 11:29:16;;;;;;;0.40;0.20;;;20.80;99.90;;;;;;4973738;28;20391;-73
2021/10/03 11:31:49;;;;;;;0.40;0.20;;;20.80;99.90;;;;;;4972635;28;20956;-74
2021/10/03 11:34:39;;;;;;;0.40;0.30;;;20.70;99.90;;;;;;4972952;28;20880;-74
2021/10/03 11:37:13;;;;;;;0.40;0.30;;;20.60;99.90;;;;;;4973466;28;20384;-73
2021/10/03 11:39:49;;;;;;;0.40;0.30;;;20.50;99.90;;;;;;4972807;28;20388;-73
2021/10/03 11:42:34;;;;;;;0.40;0.20;;;20.50;99.90;;;;;;4955913;28;20908;-73
2021/10/03 11:45:01;;;;;;;0.50;0.40;;;20.20;99.90;;;;;;4978550;28;20406;-73
2021/10/03 11:47:41;;;;;;;0.40;0.30;;;20.00;99.90;;;;;;4992597;28;20387;-73
2021/10/03 11:50:08;;;;;;;0.40;0.20;;;19.90;99.90;;;;;;4974947;28;20391;-73
2021/10/03 11:52:37;;;;;;;0.40;0.30;;;19.80;99.90;;;;;;4992553;28;20627;-73
2021/10/03 11:55:09;;;;;;;0.40;0.30;;;19.70;99.90;;;;;;4992403;28;20402;-73
2021/10/03 11:57:41;;;;;;;0.40;0.30;;;19.70;99.90;;;;;;4992443;28;20402;-73
2021/10/03 12:00:16;;;;;;;0.40;0.30;;;19.70;99.90;;;;;;4992405;28;20764;-73
2021/10/03 12:02:50;;;;;;;0.40;0.30;;;19.70;99.90;;;;;;4974174;28;20753;-74
2021/10/03 12:05:25;;;;;;;0.40;0.30;;;19.50;99.90;;;;;;4992682;28;20498;-72
2021/10/03 12:08:06;;;;;;;0.40;0.20;;;19.60;99.90;;;;;;4991791;28;20390;-72
2021/10/03 12:10:35;;;;;;;0.40;0.30;;;19.60;99.90;;;;;;4992294;28;20389;-72
2021/10/03 12:13:09;;;;;;;0.40;0.30;;;19.50;99.90;;;;;;4991642;28;20383;-72
2021/10/03 12:15:37;;;;;;;0.40;0.30;;;19.50;99.90;;;;;;4992270;28;20721;-72
2021/10/03 12:18:03;;;;;;;0.40;0.20;;;19.60;99.90;;;;;;4991501;28;20743;-72
2021/10/03 12:20:49;;;;;;;0.40;0.20;;;19.50;99.90;;;;;;4992095;28;20743;-72
2021/10/03 12:23:15;;;;;;;0.40;0.30;;;19.50;99.90;;;;;;4992084;28;20493;-72
2021/10/03 12:25:42;;;;;;;0.40;0.30;;;19.50;99.90;;;;;;4991457;28;20394;-70
2021/10/03 12:28:08;;;;;;;0.40;0.20;;;19.20;99.90;;;;;;4991602;28;20834;-71
2021/10/03 12:30:48;;;;;;;0.40;0.28;;;19.10;99.90;;;;;;4992388;28;20391;-72
2021/10/03 12:33:15;;;;;;;0.40;0.20;;;19.10;99.90;;;;;;4991975;28;20378;-74
2021/10/03 12:35:57;;;;;;;0.40;0.20;;;19.30;99.90;;;;;;4991755;28;20869;-75
2021/10/03 12:38:23;;;;;;;0.40;0.30;;;19.30;99.90;;;;;;4992057;28;20481;-74
2021/10/03 12:40:48;;;;;;;0.40;0.27;;;19.30;99.90;;;;;;4991363;28;20549;-74
2021/10/03 12:43:14;;;;;;;0.40;0.30;;;19.40;99.90;;;;;;4991915;28;20818;-72
2021/10/03 12:45:40;;;;;;;0.40;0.20;;;19.40;99.90;;;;;;4982267;28;20384;-72
2021/10/03 12:48:05;;;;;;;0.40;0.30;;;19.40;99.90;;;;;;4976454;28;20388;-72
2021/10/03 12:50:31;;;;;;;0.40;0.20;;;19.40;99.90;;;;;;4976540;28;20391;-72
2021/10/03 12:52:57;;;;;;;0.50;0.50;;;19.40;99.90;;;;;;4975603;28;20391;-72